createdAt,value
2023-02-28T00:01:14.921Z,101074.88
2023-02-28T00:03:43.039Z,101072.13
2023-02-28T00:06:11.510Z,101073.94
2023-02-28T00:08:40.212Z,101080.66
2023-02-28T00:11:10.269Z,101084.17
2023-02-28T00:13:41.324Z,101086.83
2023-02-28T00:16:12.653Z,101089.66
2023-02-28T00:18:40.887Z,101088.00
2023-02-28T00:21:09.330Z,101092.08
2023-02-28T00:23:37.737Z,101090.46
2023-02-28T00:26:06.120Z,101090.64
2023-02-28T00:28:35.819Z,101093.51
2023-02-28T00:31:09.487Z,101092.37
2023-02-28T00:33:38.224Z,101091.55
2023-02-28T00:36:08.472Z,101090.27
2023-02-28T00:38:40.170Z,101090.85
2023-02-28T00:41:08.601Z,101086.66
2023-02-28T00:43:38.172Z,101085.01
2023-02-28T00:46:06.600Z,101083.77
2023-02-28T00:48:35.560Z,101080.54
2023-02-28T00:51:03.855Z,101087.05
2023-02-28T00:53:34.930Z,101084.92
2023-02-28T00:56:03.788Z,101081.27
2023-02-28T00:58:36.146Z,101082.58
2023-02-28T01:01:04.667Z,101083.44
2023-02-28T01:03:33.034Z,101086.17
2023-02-28T01:06:01.286Z,101086.14
2023-02-28T01:08:29.865Z,101084.73
2023-02-28T01:10:58.472Z,101085.97
2023-02-28T01:13:26.945Z,101086.30
2023-02-28T01:15:57.017Z,101084.83
2023-02-28T01:18:33.578Z,101087.82
2023-02-28T01:21:09.810Z,101082.45
2023-02-28T01:23:37.976Z,101085.62
2023-02-28T01:26:08.216Z,101085.48
2023-02-28T01:28:36.464Z,101089.44
2023-02-28T01:31:05.399Z,101089.64
2023-02-28T01:33:33.992Z,101088.46
2023-02-28T01:36:16.146Z,101086.30
2023-02-28T01:38:44.288Z,101090.72
2023-02-28T01:41:26.771Z,101087.80
2023-02-28T01:44:07.779Z,101090.81
2023-02-28T01:46:36.781Z,101094.35
2023-02-28T01:49:16.503Z,101098.04
2023-02-28T01:51:52.048Z,101099.38
2023-02-28T01:54:28.151Z,101094.55
2023-02-28T01:57:16.150Z,101096.43
2023-02-28T01:59:47.666Z,101099.94
2023-02-28T02:02:21.760Z,101099.65
2023-02-28T02:05:02.684Z,101100.35
2023-02-28T02:07:33.363Z,101105.92
2023-02-28T02:10:04.512Z,101104.52
2023-02-28T02:12:51.214Z,101101.65
2023-02-28T02:15:59.850Z,101103.48
2023-02-28T02:18:43.954Z,101104.36
2023-02-28T02:21:50.749Z,101112.07
2023-02-28T02:24:37.088Z,101109.89
2023-02-28T02:27:43.653Z,101108.67
2023-02-28T02:30:15.171Z,101112.38
2023-02-28T02:33:04.626Z,101111.15
2023-02-28T02:35:41.611Z,101110.88
2023-02-28T02:38:18.918Z,101115.66
2023-02-28T02:41:02.478Z,101119.92
2023-02-28T02:43:40.019Z,101119.75
2023-02-28T02:46:25.179Z,101125.18
2023-02-28T02:48:53.531Z,101127.17
2023-02-28T02:51:22.218Z,101128.10
2023-02-28T02:53:55.789Z,101127.24
2023-02-28T02:56:27.914Z,101130.98
2023-02-28T02:58:58.012Z,101132.78
2023-02-28T03:01:30.324Z,101137.68
2023-02-28T03:04:02.676Z,101141.15
2023-02-28T03:06:31.143Z,101144.97
2023-02-28T03:08:59.379Z,101138.97
2023-02-28T03:11:27.838Z,101140.68
2023-02-28T03:14:11.111Z,101140.75
2023-02-28T03:17:03.681Z,101139.59
2023-02-28T03:20:08.425Z,101149.83
2023-02-28T03:30:41.909Z,101158.34
2023-02-28T03:33:17.554Z,101160.73
2023-02-28T03:35:57.241Z,101163.78
2023-02-28T03:39:06.707Z,101168.23
2023-02-28T03:42:01.026Z,101167.67
2023-02-28T03:44:39.066Z,101166.41
2023-02-28T03:47:19.110Z,101169.57
2023-02-28T03:49:52.144Z,101163.80
2023-02-28T03:52:21.141Z,101163.58
2023-02-28T03:54:51.449Z,101169.22
2023-02-28T03:57:29.228Z,101168.73
2023-02-28T04:00:20.697Z,101169.55
2023-02-28T04:02:53.809Z,101170.24
2023-02-28T04:05:24.559Z,101173.35
2023-02-28T04:07:55.082Z,101175.85
2023-02-28T04:10:23.321Z,101175.10
2023-02-28T04:12:52.321Z,101176.02
2023-02-28T04:15:23.946Z,101172.58
2023-02-28T04:17:53.287Z,101168.84
2023-02-28T04:20:22.504Z,101168.66
2023-02-28T04:22:50.830Z,101171.15
2023-02-28T04:25:19.143Z,101164.73
2023-02-28T04:27:49.212Z,101166.32
2023-02-28T04:30:17.874Z,101166.23
2023-02-28T04:32:46.216Z,101165.59
2023-02-28T04:35:14.602Z,101163.91
2023-02-28T04:37:42.994Z,101166.41
2023-02-28T04:40:12.174Z,101172.61
2023-02-28T04:42:40.458Z,101173.52
2023-02-28T04:45:11.345Z,101178.14
2023-02-28T04:47:40.081Z,101182.30
2023-02-28T04:50:09.812Z,101184.67
2023-02-28T04:52:39.308Z,101187.41
2023-02-28T04:55:08.810Z,101186.05
2023-02-28T04:57:38.254Z,101188.63
2023-02-28T05:00:12.748Z,101190.94
2023-02-28T05:02:41.523Z,101187.69
2023-02-28T05:05:09.773Z,101186.91
2023-02-28T05:07:39.148Z,101185.55
2023-02-28T05:10:07.994Z,101188.97
2023-02-28T05:12:36.473Z,101192.16
2023-02-28T05:15:06.025Z,101193.13
2023-02-28T05:17:34.504Z,101198.30
2023-02-28T05:20:15.029Z,101195.25
2023-02-28T05:22:44.088Z,101200.98
2023-02-28T05:25:17.665Z,101199.23
2023-02-28T05:27:46.214Z,101201.70
2023-02-28T05:30:15.679Z,101198.64
2023-02-28T05:32:45.121Z,101201.95
2023-02-28T05:35:13.726Z,101200.33
2023-02-28T05:37:42.700Z,101202.35
2023-02-28T05:40:11.738Z,101202.16
2023-02-28T05:42:40.706Z,101209.64
2023-02-28T05:45:09.379Z,101206.51
2023-02-28T05:47:37.760Z,101211.43
2023-02-28T05:50:07.145Z,101212.59
2023-02-28T05:52:35.678Z,101210.63
2023-02-28T05:55:04.954Z,101211.95
2023-02-28T05:57:34.576Z,101215.58
2023-02-28T06:00:04.436Z,101215.42
2023-02-28T06:02:41.624Z,101220.07
2023-02-28T06:05:18.984Z,101225.79
2023-02-28T06:07:47.236Z,101222.95
2023-02-28T06:10:16.837Z,101221.83
2023-02-28T06:12:45.522Z,101227.09
2023-02-28T07:28:56.342Z,101214.74
2023-02-28T07:31:25.743Z,101210.92
2023-02-28T07:33:55.173Z,101209.84
2023-02-28T07:36:23.372Z,101207.14
2023-02-28T07:38:51.720Z,101208.88
2023-02-28T07:41:22.254Z,101207.15
2023-02-28T07:43:50.632Z,101213.06
2023-02-28T07:46:22.463Z,101213.98
2023-02-28T07:48:52.076Z,101214.97
2023-02-28T07:51:20.457Z,101212.17
2023-02-28T07:53:53.603Z,101220.21
2023-02-28T07:56:22.089Z,101219.42
2023-02-28T07:58:50.520Z,101218.61
2023-02-28T08:01:20.752Z,101221.47
2023-02-28T08:03:49.138Z,101217.50
2023-02-28T08:06:24.621Z,101211.75
2023-02-28T08:08:59.604Z,101212.64
2023-02-28T08:11:28.765Z,101210.84
2023-02-28T08:13:57.194Z,101213.18
2023-02-28T08:16:27.605Z,101210.09
2023-02-28T08:18:56.098Z,101209.12
2023-02-28T08:21:24.197Z,101211.65
2023-02-28T08:23:53.242Z,101213.12
2023-02-28T08:26:21.784Z,101212.76
2023-02-28T08:28:51.165Z,101210.49
2023-02-28T08:31:19.951Z,101207.73
2023-02-28T08:33:52.209Z,101205.97
2023-02-28T08:36:21.002Z,101199.30
2023-02-28T08:38:49.173Z,101203.09
2023-02-28T08:41:17.286Z,101197.98
2023-02-28T08:43:45.803Z,101199.77
2023-02-28T08:46:15.006Z,101200.64
2023-02-28T08:48:43.417Z,101195.80
2023-02-28T08:51:19.774Z,101194.54
2023-02-28T08:53:50.592Z,101193.82
2023-02-28T08:56:19.221Z,101193.72
2023-02-28T08:58:48.494Z,101190.75
2023-02-28T09:01:18.691Z,101190.52
2023-02-28T09:03:48.554Z,101186.25
2023-02-28T09:06:17.866Z,101188.33
2023-02-28T09:08:46.219Z,101192.80
2023-02-28T09:11:14.714Z,101192.25
2023-02-28T09:13:43.827Z,101191.59
2023-02-28T09:16:13.953Z,101188.30
2023-02-28T09:18:43.686Z,101187.52
2023-02-28T09:21:16.535Z,101189.38
2023-02-28T09:23:45.700Z,101186.34
2023-02-28T09:26:16.529Z,101188.94
2023-02-28T09:28:45.362Z,101188.36
2023-02-28T09:31:15.530Z,101191.48
2023-02-28T09:33:43.959Z,101186.77
2023-02-28T09:36:14.904Z,101179.10
2023-02-28T09:38:44.846Z,101182.73
2023-02-28T09:41:29.239Z,101181.36
2023-02-28T09:43:58.369Z,101179.88
2023-02-28T09:46:29.799Z,101174.45
2023-02-28T09:48:58.464Z,101164.73
2023-02-28T09:51:54.428Z,101164.31
2023-02-28T09:54:29.792Z,101159.75
2023-02-28T09:57:10.974Z,101155.05
2023-02-28T10:00:01.779Z,101148.66
2023-02-28T10:02:36.212Z,101149.25
2023-02-28T10:05:18.392Z,101145.20
2023-02-28T10:08:09.499Z,101140.12
2023-02-28T10:10:46.396Z,101136.44
2023-02-28T10:13:23.378Z,101134.60
2023-02-28T10:15:54.809Z,101133.64
2023-02-28T10:18:28.827Z,101132.92
2023-02-28T10:20:57.572Z,101124.23
2023-02-28T10:23:32.979Z,101123.22
2023-02-28T10:26:17.082Z,101123.90
2023-02-28T10:28:45.897Z,101123.66
2023-02-28T10:31:19.548Z,101127.35
2023-02-28T10:33:47.817Z,101122.80
2023-02-28T10:36:19.082Z,101117.33
2023-02-28T10:38:47.768Z,101116.29
2023-02-28T10:41:28.722Z,101106.45
2023-02-28T10:44:18.987Z,101109.38
2023-02-28T10:46:47.123Z,101106.05
2023-02-28T10:49:28.336Z,101107.61
2023-02-28T10:51:58.394Z,101100.70
2023-02-28T10:54:38.920Z,101103.92
2023-02-28T10:57:22.021Z,101101.21
2023-02-28T10:59:55.937Z,101102.73
2023-02-28T11:02:30.330Z,101099.48
2023-02-28T11:04:58.496Z,101096.42
2023-02-28T11:07:27.820Z,101091.52
2023-02-28T11:09:59.049Z,101087.87
2023-02-28T11:12:47.287Z,101081.48
2023-02-28T11:15:23.199Z,101082.70
2023-02-28T11:18:14.698Z,101080.13
2023-02-28T11:20:47.565Z,101078.48
2023-02-28T11:23:16.399Z,101071.81
2023-02-28T11:25:51.826Z,101064.64
2023-02-28T11:28:37.361Z,101066.27
2023-02-28T11:31:06.962Z,101066.21
2023-02-28T11:33:46.346Z,101067.83
2023-02-28T11:36:20.128Z,101061.23
2023-02-28T11:38:50.781Z,101059.15
2023-02-28T11:41:19.088Z,101059.34
2023-02-28T11:44:00.396Z,101057.92
2023-02-28T11:46:38.606Z,101056.69
2023-02-28T11:49:26.350Z,101065.34
2023-02-28T11:52:14.618Z,101065.44
2023-02-28T11:54:52.815Z,101061.72
2023-02-28T11:57:46.075Z,101052.27
2023-02-28T12:00:37.613Z,101051.11
2023-02-28T12:03:17.002Z,101055.45
2023-02-28T12:05:55.949Z,101056.56
2023-02-28T12:08:43.278Z,101052.90
2023-02-28T12:12:16.352Z,101053.14
2023-02-28T12:15:06.763Z,101046.39
2023-02-28T12:17:43.847Z,101042.30
2023-02-28T12:20:27.018Z,101037.88
2023-02-28T12:24:07.786Z,101031.13
2023-02-28T12:26:45.758Z,101026.93
2023-02-28T12:29:16.502Z,101033.59
2023-02-28T12:32:13.067Z,101030.95
2023-02-28T12:34:48.953Z,101029.77
2023-02-28T12:37:42.252Z,101032.42
2023-02-28T12:40:13.850Z,101025.23
2023-02-28T12:42:47.246Z,101023.49
2023-02-28T12:45:22.298Z,101018.91
2023-02-28T12:47:58.925Z,101013.23
2023-02-28T12:50:27.310Z,101016.22
2023-02-28T12:53:03.541Z,101009.52
2023-02-28T12:55:35.269Z,101007.48
2023-02-28T12:58:46.108Z,101001.07
2023-02-28T13:01:33.489Z,100997.19
2023-02-28T13:04:17.464Z,100997.81
2023-02-28T13:07:15.744Z,100990.28
2023-02-28T13:09:55.903Z,100990.98
2023-02-28T13:12:27.997Z,100988.04
2023-02-28T13:15:17.619Z,100987.54
2023-02-28T13:17:46.434Z,100982.69
2023-02-28T13:20:40.009Z,100978.08
2023-02-28T13:23:52.634Z,100977.05
2023-02-28T13:26:21.247Z,100978.45
2023-02-28T13:28:49.697Z,100979.03
2023-02-28T13:31:19.639Z,100966.81
2023-02-28T13:33:50.615Z,100963.66
2023-02-28T13:36:18.983Z,100960.58
2023-02-28T13:38:52.771Z,100965.37
2023-02-28T13:41:30.545Z,100959.53
2023-02-28T13:44:13.701Z,100957.29
2023-02-28T13:46:49.591Z,100954.83
2023-02-28T13:49:24.241Z,100953.70
2023-02-28T13:52:09.864Z,100950.14
2023-02-28T13:54:49.447Z,100947.44
2023-02-28T13:57:43.842Z,100942.83
2023-02-28T14:00:19.238Z,100942.98
2023-02-28T14:03:10.057Z,100946.56
2023-02-28T14:05:39.899Z,100941.71
2023-02-28T14:08:21.971Z,100938.95
2023-02-28T14:10:52.478Z,100935.13
2023-02-28T14:13:46.075Z,100935.36
2023-02-28T14:16:15.887Z,100925.85
2023-02-28T14:19:15.221Z,100924.41
2023-02-28T14:22:25.028Z,100921.97
2023-02-28T14:25:05.016Z,100918.27
2023-02-28T14:27:38.761Z,100914.70
2023-02-28T14:30:39.547Z,100916.33
2023-02-28T14:33:28.320Z,100912.60
2023-02-28T14:36:15.193Z,100911.70
2023-02-28T14:38:51.764Z,100907.21
2023-02-28T14:41:28.558Z,100903.09
2023-02-28T14:43:58.785Z,100895.98
2023-02-28T14:46:31.865Z,100894.86
2023-02-28T14:49:00.707Z,100891.64
2023-02-28T14:51:29.419Z,100893.40
2023-02-28T14:53:59.551Z,100890.72
2023-02-28T14:56:32.250Z,100888.40
2023-02-28T14:59:00.319Z,100884.83
2023-02-28T15:01:29.289Z,100881.98
2023-02-28T15:04:05.780Z,100881.60
2023-02-28T15:06:34.297Z,100877.48
2023-02-28T15:09:15.987Z,100878.45
2023-02-28T15:11:47.293Z,100877.57
2023-02-28T15:14:21.073Z,100879.34
2023-02-28T15:17:03.316Z,100874.55
2023-02-28T15:19:35.723Z,100879.42
2023-02-28T15:22:06.649Z,100879.34
2023-02-28T15:24:51.929Z,100876.34
2023-02-28T15:27:23.132Z,100874.02
2023-02-28T15:29:54.920Z,100870.31
2023-02-28T15:32:30.065Z,100864.15
2023-02-28T15:34:59.448Z,100862.61
2023-02-28T15:37:34.316Z,100859.57
2023-02-28T15:40:15.172Z,100867.95
2023-02-28T15:42:46.446Z,100872.63
2023-02-28T15:45:48.097Z,100872.95
2023-02-28T15:48:21.036Z,100877.49
2023-02-28T15:50:59.835Z,100879.55
2023-02-28T15:54:09.013Z,100877.88
2023-02-28T15:56:44.168Z,100877.15
2023-02-28T15:59:21.284Z,100880.45
2023-02-28T16:02:11.795Z,100887.42
2023-02-28T16:05:00.090Z,100892.39
2023-02-28T16:07:28.686Z,100895.11
2023-02-28T16:09:56.797Z,100894.52
2023-02-28T16:12:29.899Z,100895.86
2023-02-28T16:15:03.958Z,100896.52
2023-02-28T16:17:34.976Z,100901.92
2023-02-28T16:20:12.737Z,100902.42
2023-02-28T16:22:43.069Z,100904.56
2023-02-28T16:25:19.134Z,100903.91
2023-02-28T16:27:51.179Z,100901.00
2023-02-28T16:30:23.132Z,100901.04
2023-02-28T16:32:51.702Z,100899.83
2023-02-28T16:35:20.074Z,100899.98
2023-02-28T16:37:48.439Z,100904.23
2023-02-28T16:40:18.319Z,100901.29
2023-02-28T16:42:47.247Z,100900.45
2023-02-28T16:45:20.466Z,100906.66
2023-02-28T16:47:48.653Z,100910.27
2023-02-28T16:50:21.468Z,100912.08
2023-02-28T16:52:50.812Z,100910.25
2023-02-28T16:55:19.739Z,100911.58
2023-02-28T16:57:51.557Z,100909.96
2023-02-28T17:00:20.558Z,100906.13
2023-02-28T17:02:49.218Z,100904.13
2023-02-28T17:05:19.802Z,100906.11
2023-02-28T17:07:48.756Z,100901.99
2023-02-28T17:10:18.118Z,100901.89
2023-02-28T17:12:49.580Z,100903.23
2023-02-28T17:15:20.725Z,100904.62
2023-02-28T17:17:50.081Z,100907.02
2023-02-28T17:20:23.467Z,100903.99
2023-02-28T17:22:53.310Z,100898.34
2023-02-28T17:25:21.866Z,100893.43
2023-02-28T17:27:50.548Z,100888.02
2023-02-28T17:30:24.309Z,100890.84
2023-02-28T17:32:52.964Z,100885.23
2023-02-28T17:35:21.258Z,100882.80
2023-02-28T17:37:49.938Z,100883.51
2023-02-28T17:46:51.604Z,100891.13
2023-02-28T17:49:18.771Z,100900.05
2023-02-28T17:51:45.988Z,100901.56
2023-02-28T17:54:14.363Z,100905.23
2023-02-28T17:56:43.605Z,100904.56
2023-02-28T17:59:13.776Z,100910.16
2023-02-28T18:01:40.827Z,100909.16
2023-02-28T18:04:08.375Z,100916.01
2023-02-28T18:06:46.753Z,100912.14
2023-02-28T18:09:14.901Z,100916.44
2023-02-28T18:11:41.925Z,100916.80
2023-02-28T18:14:09.379Z,100913.48
2023-02-28T18:16:36.271Z,100921.73
2023-02-28T18:19:03.126Z,100924.86
2023-02-28T18:21:30.340Z,100925.95
2023-02-28T18:23:58.243Z,100917.85
2023-02-28T18:26:25.100Z,100916.61
2023-02-28T18:28:55.105Z,100917.85
2023-02-28T18:31:25.141Z,100925.98
2023-02-28T18:33:52.776Z,100929.11
2023-02-28T18:36:20.481Z,100931.01
2023-02-28T18:38:50.056Z,100928.73
2023-02-28T18:41:21.042Z,100925.94
2023-02-28T18:43:47.941Z,100922.27
2023-02-28T18:46:16.546Z,100917.65
2023-02-28T18:48:43.402Z,100914.70
2023-02-28T18:51:29.114Z,100906.04
2023-02-28T18:53:56.617Z,100903.57
2023-02-28T18:56:24.423Z,100904.88
2023-02-28T18:58:52.697Z,100907.72
2023-02-28T19:01:29.362Z,100916.44
2023-02-28T19:03:56.417Z,100907.27
2023-02-28T19:06:24.107Z,100906.12
2023-02-28T19:08:57.792Z,100905.61
2023-02-28T19:11:25.005Z,100902.12
2023-02-28T19:21:53.955Z,100896.95
2023-02-28T19:24:22.576Z,100891.65
2023-02-28T19:26:49.485Z,100880.34
2023-02-28T19:29:16.430Z,100877.75
2023-02-28T19:31:43.730Z,100876.20
2023-02-28T19:34:10.841Z,100866.70
2023-02-28T19:36:38.348Z,100866.52
2023-02-28T19:39:05.758Z,100865.52
2023-02-28T19:41:32.876Z,100867.43
2023-02-28T19:43:59.764Z,100865.81
2023-02-28T19:47:16.065Z,100879.64
2023-02-28T19:49:44.596Z,100879.73
2023-02-28T19:52:15.092Z,100879.65
2023-02-28T19:54:44.186Z,100875.92
2023-02-28T19:57:12.851Z,100874.20
2023-02-28T19:59:44.821Z,100872.90
2023-02-28T20:02:15.155Z,100876.28
2023-02-28T20:04:47.572Z,100871.77
2023-02-28T20:07:16.981Z,100862.86
2023-02-28T20:09:45.921Z,100861.52
2023-02-28T20:12:23.647Z,100859.04
2023-02-28T20:14:56.177Z,100855.28
2023-02-28T20:17:30.605Z,100853.48
2023-02-28T20:19:58.792Z,100850.54
2023-02-28T20:22:27.077Z,100855.39
2023-02-28T20:24:55.334Z,100863.21
2023-02-28T20:27:23.834Z,100865.27
2023-02-28T20:29:53.415Z,100864.85
2023-02-28T20:32:21.952Z,100862.63
2023-02-28T20:34:54.915Z,100855.17
2023-02-28T20:37:23.601Z,100857.11
2023-02-28T20:39:53.258Z,100855.64
2023-02-28T20:42:21.993Z,100855.42
2023-02-28T20:44:52.176Z,100853.42
2023-02-28T20:47:20.924Z,100851.34
2023-02-28T20:49:49.304Z,100844.29
2023-02-28T20:52:44.907Z,100841.83
2023-02-28T20:55:13.154Z,100837.13
2023-02-28T20:57:41.301Z,100840.16
2023-02-28T21:00:15.724Z,100839.58
2023-02-28T21:02:47.009Z,100833.50
2023-02-28T21:05:15.634Z,100835.40
2023-02-28T21:07:43.892Z,100833.92
2023-02-28T21:10:12.382Z,100834.05
2023-02-28T21:12:41.130Z,100829.43
2023-02-28T21:15:09.907Z,100827.93
2023-02-28T21:17:38.472Z,100818.35
2023-02-28T21:20:07.339Z,100815.27
2023-02-28T21:22:37.157Z,100808.11
2023-02-28T21:25:05.935Z,100805.36
2023-02-28T21:27:35.145Z,100801.53
2023-02-28T21:30:05.719Z,100795.41
2023-02-28T21:32:33.987Z,100790.88
2023-02-28T21:35:03.984Z,100790.15
2023-02-28T21:37:32.408Z,100792.36
2023-02-28T21:40:00.597Z,100787.02
2023-02-28T21:42:29.221Z,100788.52
2023-02-28T21:45:01.759Z,100787.61
2023-02-28T21:47:30.190Z,100782.80
2023-02-28T21:49:58.364Z,100784.16
2023-02-28T21:52:26.524Z,100781.86
2023-02-28T21:54:54.998Z,100783.19
2023-02-28T21:57:31.987Z,100784.27
2023-02-28T22:00:02.119Z,100781.59
